sensor_id;sensor_type;location;lat;lon;timestamp;P1;durP1;ratioP1;P2;durP2;ratioP2
10910;SDS011;5508;49.150;11.030;2024-03-22T00:00:14;16.73;;;13.17;;
10910;SDS011;5508;49.150;11.030;2024-03-22T00:03:15;17.07;;;12.90;;
10910;SDS011;5508;49.150;11.030;2024-03-22T00:06:15;17.57;;;13.13;;
10910;SDS011;5508;49.150;11.030;2024-03-22T00:09:16;24.27;;;12.73;;
10910;SDS011;5508;49.150;11.030;2024-03-22T00:12:17;15.83;;;12.80;;
10910;SDS011;5508;49.150;11.030;2024-03-22T00:15:17;16.47;;;12.97;;
10910;SDS011;5508;49.150;11.030;2024-03-22T00:18:18;20.37;;;13.10;;
10910;SDS011;5508;49.150;11.030;2024-03-22T00:21:18;18.37;;;14.60;;
10910;SDS011;5508;49.150;11.030;2024-03-22T00:24:19;18.80;;;15.00;;
10910;SDS011;5508;49.150;11.030;2024-03-22T00:27:20;22.17;;;15.40;;
10910;SDS011;5508;49.150;11.030;2024-03-22T00:30:20;20.27;;;15.00;;
10910;SDS011;5508;49.150;11.030;2024-03-22T00:33:21;20.93;;;14.97;;
10910;SDS011;5508;49.150;11.030;2024-03-22T00:36:21;18.47;;;13.20;;
10910;SDS011;5508;49.150;11.030;2024-03-22T00:39:22;22.10;;;15.00;;
10910;SDS011;5508;49.150;11.030;2024-03-22T00:42:22;19.03;;;15.47;;
10910;SDS011;5508;49.150;11.030;2024-03-22T00:45:23;22.67;;;16.97;;
10910;SDS011;5508;49.150;11.030;2024-03-22T00:48:24;21.10;;;15.43;;
10910;SDS011;5508;49.150;11.030;2024-03-22T00:51:25;21.57;;;16.30;;
10910;SDS011;5508;49.150;11.030;2024-03-22T00:54:26;27.93;;;16.93;;
10910;SDS011;5508;49.150;11.030;2024-03-22T00:57:27;20.90;;;15.43;;
10910;SDS011;5508;49.150;11.030;2024-03-22T01:00:27;24.07;;;17.33;;
10910;SDS011;5508;49.150;11.030;2024-03-22T01:03:28;23.57;;;15.57;;
10910;SDS011;5508;49.150;11.030;2024-03-22T01:06:29;24.00;;;17.43;;
10910;SDS011;5508;49.150;11.030;2024-03-22T01:09:29;29.47;;;16.77;;
10910;SDS011;5508;49.150;11.030;2024-03-22T01:12:30;22.80;;;17.03;;
10910;SDS011;5508;49.150;11.030;2024-03-22T01:15:31;22.97;;;16.33;;
10910;SDS011;5508;49.150;11.030;2024-03-22T01:18:31;25.37;;;17.43;;
10910;SDS011;5508;49.150;11.030;2024-03-22T01:21:32;25.80;;;17.13;;
10910;SDS011;5508;49.150;11.030;2024-03-22T01:24:32;26.03;;;17.03;;
10910;SDS011;5508;49.150;11.030;2024-03-22T01:27:33;26.27;;;17.80;;
10910;SDS011;5508;49.150;11.030;2024-03-22T01:30:33;24.80;;;17.43;;
10910;SDS011;5508;49.150;11.030;2024-03-22T01:33:35;26.27;;;17.70;;
10910;SDS011;5508;49.150;11.030;2024-03-22T01:36:36;23.13;;;16.90;;
10910;SDS011;5508;49.150;11.030;2024-03-22T01:39:36;21.87;;;16.13;;
10910;SDS011;5508;49.150;11.030;2024-03-22T01:42:37;24.23;;;15.37;;
10910;SDS011;5508;49.150;11.030;2024-03-22T01:45:37;19.67;;;14.87;;
10910;SDS011;5508;49.150;11.030;2024-03-22T01:48:38;18.77;;;14.93;;
10910;SDS011;5508;49.150;11.030;2024-03-22T01:51:39;22.40;;;14.97;;
10910;SDS011;5508;49.150;11.030;2024-03-22T01:54:40;20.47;;;14.70;;
10910;SDS011;5508;49.150;11.030;2024-03-22T01:57:41;19.60;;;15.17;;
10910;SDS011;5508;49.150;11.030;2024-03-22T02:00:42;24.97;;;14.93;;
10910;SDS011;5508;49.150;11.030;2024-03-22T02:03:43;24.13;;;15.70;;
10910;SDS011;5508;49.150;11.030;2024-03-22T02:06:43;19.07;;;13.77;;
10910;SDS011;5508;49.150;11.030;2024-03-22T02:09:44;21.53;;;15.60;;
10910;SDS011;5508;49.150;11.030;2024-03-22T02:12:44;19.33;;;14.73;;
10910;SDS011;5508;49.150;11.030;2024-03-22T02:15:45;20.17;;;14.27;;
10910;SDS011;5508;49.150;11.030;2024-03-22T02:18:46;21.73;;;15.27;;
10910;SDS011;5508;49.150;11.030;2024-03-22T02:21:46;21.30;;;15.07;;
10910;SDS011;5508;49.150;11.030;2024-03-22T02:24:47;19.80;;;15.03;;
10910;SDS011;5508;49.150;11.030;2024-03-22T02:27:47;23.27;;;16.43;;
10910;SDS011;5508;49.150;11.030;2024-03-22T02:30:50;24.50;;;16.53;;
10910;SDS011;5508;49.150;11.030;2024-03-22T02:33:51;24.07;;;15.70;;
10910;SDS011;5508;49.150;11.030;2024-03-22T02:36:51;25.93;;;16.73;;
10910;SDS011;5508;49.150;11.030;2024-03-22T02:39:52;21.47;;;15.73;;
10910;SDS011;5508;49.150;11.030;2024-03-22T02:42:52;24.50;;;16.73;;
10910;SDS011;5508;49.150;11.030;2024-03-22T02:45:53;24.30;;;15.57;;
10910;SDS011;5508;49.150;11.030;2024-03-22T02:48:53;28.80;;;19.00;;
10910;SDS011;5508;49.150;11.030;2024-03-22T02:51:54;25.10;;;16.97;;
10910;SDS011;5508;49.150;11.030;2024-03-22T02:54:54;26.77;;;17.53;;
10910;SDS011;5508;49.150;11.030;2024-03-22T02:57:56;27.07;;;17.87;;
10910;SDS011;5508;49.150;11.030;2024-03-22T03:00:57;29.27;;;19.20;;
10910;SDS011;5508;49.150;11.030;2024-03-22T03:03:57;29.10;;;20.83;;
10910;SDS011;5508;49.150;11.030;2024-03-22T03:06:58;28.07;;;21.67;;
10910;SDS011;5508;49.150;11.030;2024-03-22T03:09:59;33.23;;;21.37;;
10910;SDS011;5508;49.150;11.030;2024-03-22T03:12:59;28.63;;;20.67;;
10910;SDS011;5508;49.150;11.030;2024-03-22T03:16:00;29.40;;;19.63;;
10910;SDS011;5508;49.150;11.030;2024-03-22T03:19:02;27.73;;;18.50;;
10910;SDS011;5508;49.150;11.030;2024-03-22T03:22:03;30.73;;;19.00;;
10910;SDS011;5508;49.150;11.030;2024-03-22T03:25:03;36.83;;;21.03;;
10910;SDS011;5508;49.150;11.030;2024-03-22T03:28:04;32.67;;;20.73;;
10910;SDS011;5508;49.150;11.030;2024-03-22T03:31:07;29.97;;;19.80;;
10910;SDS011;5508;49.150;11.030;2024-03-22T03:34:08;29.93;;;19.73;;
10910;SDS011;5508;49.150;11.030;2024-03-22T03:37:08;30.20;;;19.33;;
10910;SDS011;5508;49.150;11.030;2024-03-22T03:40:09;30.60;;;19.43;;
10910;SDS011;5508;49.150;11.030;2024-03-22T03:43:09;28.90;;;19.13;;
10910;SDS011;5508;49.150;11.030;2024-03-22T03:46:10;27.60;;;18.77;;
10910;SDS011;5508;49.150;11.030;2024-03-22T03:49:11;31.53;;;19.83;;
10910;SDS011;5508;49.150;11.030;2024-03-22T03:52:12;28.93;;;19.30;;
10910;SDS011;5508;49.150;11.030;2024-03-22T03:55:12;28.77;;;19.17;;
10910;SDS011;5508;49.150;11.030;2024-03-22T03:58:13;27.87;;;19.10;;
10910;SDS011;5508;49.150;11.030;2024-03-22T04:01:13;35.23;;;19.67;;
10910;SDS011;5508;49.150;11.030;2024-03-22T04:04:14;29.23;;;19.37;;
10910;SDS011;5508;49.150;11.030;2024-03-22T04:07:15;30.97;;;19.20;;
10910;SDS011;5508;49.150;11.030;2024-03-22T04:10:15;29.20;;;18.13;;
10910;SDS011;5508;49.150;11.030;2024-03-22T04:13:16;27.00;;;18.27;;
10910;SDS011;5508;49.150;11.030;2024-03-22T04:16:16;27.33;;;18.47;;
10910;SDS011;5508;49.150;11.030;2024-03-22T04:19:17;24.50;;;18.13;;
10910;SDS011;5508;49.150;11.030;2024-03-22T04:22:18;27.03;;;17.73;;
10910;SDS011;5508;49.150;11.030;2024-03-22T04:25:18;25.20;;;17.10;;
10910;SDS011;5508;49.150;11.030;2024-03-22T04:28:19;24.93;;;17.67;;
10910;SDS011;5508;49.150;11.030;2024-03-22T04:31:19;23.60;;;17.20;;
10910;SDS011;5508;49.150;11.030;2024-03-22T04:34:20;23.20;;;16.73;;
10910;SDS011;5508;49.150;11.030;2024-03-22T04:37:21;24.53;;;17.27;;
10910;SDS011;5508;49.150;11.030;2024-03-22T04:40:21;26.57;;;16.80;;
10910;SDS011;5508;49.150;11.030;2024-03-22T04:43:22;23.40;;;16.20;;
10910;SDS011;5508;49.150;11.030;2024-03-22T04:46:24;25.77;;;16.47;;
10910;SDS011;5508;49.150;11.030;2024-03-22T04:49:24;22.73;;;15.80;;
10910;SDS011;5508;49.150;11.030;2024-03-22T04:52:25;21.17;;;15.30;;
10910;SDS011;5508;49.150;11.030;2024-03-22T04:55:25;19.77;;;15.03;;
10910;SDS011;5508;49.150;11.030;2024-03-22T04:58:26;18.80;;;14.10;;
10910;SDS011;5508;49.150;11.030;2024-03-22T05:01:27;21.00;;;14.10;;
10910;SDS011;5508;49.150;11.030;2024-03-22T05:04:27;18.27;;;13.83;;
10910;SDS011;5508;49.150;11.030;2024-03-22T05:07:28;21.97;;;14.20;;
10910;SDS011;5508;49.150;11.030;2024-03-22T05:10:32;20.43;;;14.10;;
10910;SDS011;5508;49.150;11.030;2024-03-22T05:13:33;22.23;;;14.07;;
10910;SDS011;5508;49.150;11.030;2024-03-22T05:16:33;19.67;;;13.67;;
10910;SDS011;5508;49.150;11.030;2024-03-22T05:19:34;19.67;;;14.97;;
10910;SDS011;5508;49.150;11.030;2024-03-22T05:22:35;25.37;;;15.07;;
10910;SDS011;5508;49.150;11.030;2024-03-22T05:25:36;17.40;;;13.13;;
10910;SDS011;5508;49.150;11.030;2024-03-22T05:28:37;19.07;;;13.90;;
10910;SDS011;5508;49.150;11.030;2024-03-22T05:31:45;19.27;;;13.60;;
10910;SDS011;5508;49.150;11.030;2024-03-22T05:34:47;20.43;;;14.93;;
10910;SDS011;5508;49.150;11.030;2024-03-22T05:37:48;19.20;;;14.93;;
10910;SDS011;5508;49.150;11.030;2024-03-22T05:40:49;19.27;;;13.87;;
10910;SDS011;5508;49.150;11.030;2024-03-22T05:43:50;44.50;;;15.90;;
10910;SDS011;5508;49.150;11.030;2024-03-22T05:46:50;52.70;;;16.80;;
10910;SDS011;5508;49.150;11.030;2024-03-22T05:49:51;33.37;;;16.47;;
10910;SDS011;5508;49.150;11.030;2024-03-22T05:52:52;38.70;;;15.67;;
10910;SDS011;5508;49.150;11.030;2024-03-22T05:55:52;23.53;;;13.80;;
10910;SDS011;5508;49.150;11.030;2024-03-22T05:58:53;23.73;;;15.60;;
10910;SDS011;5508;49.150;11.030;2024-03-22T06:01:54;22.53;;;15.73;;
10910;SDS011;5508;49.150;11.030;2024-03-22T06:04:54;28.80;;;16.43;;
10910;SDS011;5508;49.150;11.030;2024-03-22T06:07:55;20.60;;;14.57;;
10910;SDS011;5508;49.150;11.030;2024-03-22T06:10:55;22.83;;;15.63;;
10910;SDS011;5508;49.150;11.030;2024-03-22T06:13:56;22.50;;;15.33;;
10910;SDS011;5508;49.150;11.030;2024-03-22T06:16:57;20.63;;;15.40;;
10910;SDS011;5508;49.150;11.030;2024-03-22T06:19:57;18.90;;;14.43;;
10910;SDS011;5508;49.150;11.030;2024-03-22T06:22:58;19.13;;;13.80;;
10910;SDS011;5508;49.150;11.030;2024-03-22T06:25:58;48.00;;;16.73;;
10910;SDS011;5508;49.150;11.030;2024-03-22T06:28:59;24.60;;;16.57;;
10910;SDS011;5508;49.150;11.030;2024-03-22T06:32:00;19.90;;;15.40;;
10910;SDS011;5508;49.150;11.030;2024-03-22T06:35:00;19.53;;;15.47;;
10910;SDS011;5508;49.150;11.030;2024-03-22T06:38:01;22.50;;;16.93;;
10910;SDS011;5508;49.150;11.030;2024-03-22T06:41:02;25.20;;;16.27;;
10910;SDS011;5508;49.150;11.030;2024-03-22T06:44:04;18.07;;;14.43;;
10910;SDS011;5508;49.150;11.030;2024-03-22T06:47:04;25.20;;;15.37;;
10910;SDS011;5508;49.150;11.030;2024-03-22T06:50:05;27.50;;;15.33;;
10910;SDS011;5508;49.150;11.030;2024-03-22T06:53:06;22.30;;;14.77;;
10910;SDS011;5508;49.150;11.030;2024-03-22T06:56:06;19.40;;;13.70;;
10910;SDS011;5508;49.150;11.030;2024-03-22T06:59:08;18.00;;;12.90;;
10910;SDS011;5508;49.150;11.030;2024-03-22T07:02:09;20.50;;;14.03;;
10910;SDS011;5508;49.150;11.030;2024-03-22T07:05:10;17.97;;;13.73;;
10910;SDS011;5508;49.150;11.030;2024-03-22T07:08:11;21.17;;;14.63;;
10910;SDS011;5508;49.150;11.030;2024-03-22T07:11:11;20.37;;;13.77;;
10910;SDS011;5508;49.150;11.030;2024-03-22T07:14:12;27.97;;;15.63;;
10910;SDS011;5508;49.150;11.030;2024-03-22T07:17:12;25.33;;;14.67;;
10910;SDS011;5508;49.150;11.030;2024-03-22T07:20:13;24.00;;;15.33;;
10910;SDS011;5508;49.150;11.030;2024-03-22T07:23:14;19.00;;;14.17;;
10910;SDS011;5508;49.150;11.030;2024-03-22T07:26:14;18.47;;;13.77;;
10910;SDS011;5508;49.150;11.030;2024-03-22T07:29:15;20.93;;;13.33;;
10910;SDS011;5508;49.150;11.030;2024-03-22T07:32:16;23.37;;;14.13;;
10910;SDS011;5508;49.150;11.030;2024-03-22T07:35:16;17.67;;;13.57;;
10910;SDS011;5508;49.150;11.030;2024-03-22T07:38:17;14.67;;;12.20;;
10910;SDS011;5508;49.150;11.030;2024-03-22T07:41:18;16.60;;;13.73;;
10910;SDS011;5508;49.150;11.030;2024-03-22T07:44:18;24.87;;;13.73;;
10910;SDS011;5508;49.150;11.030;2024-03-22T07:47:24;17.47;;;12.53;;
10910;SDS011;5508;49.150;11.030;2024-03-22T07:50:25;22.60;;;14.17;;
10910;SDS011;5508;49.150;11.030;2024-03-22T07:53:26;14.90;;;12.47;;
10910;SDS011;5508;49.150;11.030;2024-03-22T07:56:26;16.07;;;13.03;;
10910;SDS011;5508;49.150;11.030;2024-03-22T07:59:27;19.17;;;11.73;;
10910;SDS011;5508;49.150;11.030;2024-03-22T08:02:27;17.97;;;12.17;;
10910;SDS011;5508;49.150;11.030;2024-03-22T08:05:28;16.60;;;12.40;;
10910;SDS011;5508;49.150;11.030;2024-03-22T08:08:29;20.47;;;12.53;;
10910;SDS011;5508;49.150;11.030;2024-03-22T08:11:29;14.47;;;12.13;;
10910;SDS011;5508;49.150;11.030;2024-03-22T08:14:30;20.37;;;12.43;;
10910;SDS011;5508;49.150;11.030;2024-03-22T08:17:31;21.70;;;12.70;;
10910;SDS011;5508;49.150;11.030;2024-03-22T08:20:32;22.23;;;13.17;;
10910;SDS011;5508;49.150;11.030;2024-03-22T08:23:34;18.87;;;13.17;;
10910;SDS011;5508;49.150;11.030;2024-03-22T08:26:34;14.63;;;12.47;;
10910;SDS011;5508;49.150;11.030;2024-03-22T08:29:35;15.97;;;12.70;;
10910;SDS011;5508;49.150;11.030;2024-03-22T08:32:37;18.33;;;12.80;;
10910;SDS011;5508;49.150;11.030;2024-03-22T08:35:37;18.10;;;12.90;;
10910;SDS011;5508;49.150;11.030;2024-03-22T08:38:39;19.83;;;12.77;;
10910;SDS011;5508;49.150;11.030;2024-03-22T08:41:39;19.70;;;13.73;;
10910;SDS011;5508;49.150;11.030;2024-03-22T08:44:40;16.17;;;12.90;;
10910;SDS011;5508;49.150;11.030;2024-03-22T08:47:40;18.03;;;12.27;;
10910;SDS011;5508;49.150;11.030;2024-03-22T08:50:44;25.37;;;14.50;;
10910;SDS011;5508;49.150;11.030;2024-03-22T08:53:44;14.70;;;12.90;;
10910;SDS011;5508;49.150;11.030;2024-03-22T08:56:45;20.43;;;13.00;;
10910;SDS011;5508;49.150;11.030;2024-03-22T08:59:46;19.40;;;13.13;;
10910;SDS011;5508;49.150;11.030;2024-03-22T09:02:46;24.53;;;13.23;;
10910;SDS011;5508;49.150;11.030;2024-03-22T09:05:47;13.87;;;12.17;;
10910;SDS011;5508;49.150;11.030;2024-03-22T09:08:47;18.60;;;13.17;;
10910;SDS011;5508;49.150;11.030;2024-03-22T09:11:48;17.83;;;12.90;;
10910;SDS011;5508;49.150;11.030;2024-03-22T09:14:49;16.30;;;11.57;;
10910;SDS011;5508;49.150;11.030;2024-03-22T09:17:51;15.03;;;12.43;;
10910;SDS011;5508;49.150;11.030;2024-03-22T09:20:53;15.53;;;13.27;;
10910;SDS011;5508;49.150;11.030;2024-03-22T09:23:53;17.77;;;12.60;;
10910;SDS011;5508;49.150;11.030;2024-03-22T09:26:54;19.70;;;13.00;;
10910;SDS011;5508;49.150;11.030;2024-03-22T09:29:55;17.07;;;12.10;;
10910;SDS011;5508;49.150;11.030;2024-03-22T09:32:55;17.13;;;11.57;;
10910;SDS011;5508;49.150;11.030;2024-03-22T09:35:56;13.93;;;11.10;;
10910;SDS011;5508;49.150;11.030;2024-03-22T09:38:56;18.07;;;11.23;;
10910;SDS011;5508;49.150;11.030;2024-03-22T09:41:57;12.63;;;10.77;;
10910;SDS011;5508;49.150;11.030;2024-03-22T09:45:00;13.53;;;10.53;;
10910;SDS011;5508;49.150;11.030;2024-03-22T09:48:01;14.43;;;10.17;;
10910;SDS011;5508;49.150;11.030;2024-03-22T09:51:03;11.87;;;9.20;;
10910;SDS011;5508;49.150;11.030;2024-03-22T09:54:03;14.57;;;10.13;;
10910;SDS011;5508;49.150;11.030;2024-03-22T09:57:04;12.67;;;9.83;;
10910;SDS011;5508;49.150;11.030;2024-03-22T10:00:07;12.57;;;8.87;;
10910;SDS011;5508;49.150;11.030;2024-03-22T10:03:09;15.07;;;9.53;;
10910;SDS011;5508;49.150;11.030;2024-03-22T10:06:10;14.93;;;9.77;;
10910;SDS011;5508;49.150;11.030;2024-03-22T10:09:11;13.47;;;9.17;;
10910;SDS011;5508;49.150;11.030;2024-03-22T10:12:11;9.77;;;8.77;;
10910;SDS011;5508;49.150;11.030;2024-03-22T10:15:12;11.47;;;9.17;;
10910;SDS011;5508;49.150;11.030;2024-03-22T10:18:14;11.67;;;9.67;;
10910;SDS011;5508;49.150;11.030;2024-03-22T10:21:18;9.97;;;8.97;;
10910;SDS011;5508;49.150;11.030;2024-03-22T10:24:19;14.20;;;10.17;;
10910;SDS011;5508;49.150;11.030;2024-03-22T10:27:19;12.47;;;9.67;;
10910;SDS011;5508;49.150;11.030;2024-03-22T10:30:20;11.20;;;9.83;;
10910;SDS011;5508;49.150;11.030;2024-03-22T10:33:22;9.97;;;8.97;;
10910;SDS011;5508;49.150;11.030;2024-03-22T10:36:23;12.43;;;10.10;;
10910;SDS011;5508;49.150;11.030;2024-03-22T10:39:25;12.23;;;9.40;;
10910;SDS011;5508;49.150;11.030;2024-03-22T10:42:26;10.07;;;8.93;;
10910;SDS011;5508;49.150;11.030;2024-03-22T10:45:27;11.77;;;9.20;;
10910;SDS011;5508;49.150;11.030;2024-03-22T10:48:30;9.80;;;8.37;;
10910;SDS011;5508;49.150;11.030;2024-03-22T10:51:31;11.90;;;9.30;;
10910;SDS011;5508;49.150;11.030;2024-03-22T10:54:35;14.13;;;9.30;;
10910;SDS011;5508;49.150;11.030;2024-03-22T10:57:39;9.27;;;8.37;;
10910;SDS011;5508;49.150;11.030;2024-03-22T11:00:41;12.53;;;8.97;;
10910;SDS011;5508;49.150;11.030;2024-03-22T11:03:43;11.00;;;9.23;;
10910;SDS011;5508;49.150;11.030;2024-03-22T11:06:47;8.77;;;7.67;;
10910;SDS011;5508;49.150;11.030;2024-03-22T11:09:51;9.33;;;8.23;;
10910;SDS011;5508;49.150;11.030;2024-03-22T11:12:52;9.97;;;8.93;;
10910;SDS011;5508;49.150;11.030;2024-03-22T11:15:53;10.17;;;7.77;;
10910;SDS011;5508;49.150;11.030;2024-03-22T11:18:54;11.53;;;7.67;;
10910;SDS011;5508;49.150;11.030;2024-03-22T11:21:55;11.67;;;7.60;;
10910;SDS011;5508;49.150;11.030;2024-03-22T11:24:55;9.70;;;7.70;;
10910;SDS011;5508;49.150;11.030;2024-03-22T11:27:56;8.13;;;7.27;;
10910;SDS011;5508;49.150;11.030;2024-03-22T11:30:57;8.30;;;7.33;;
10910;SDS011;5508;49.150;11.030;2024-03-22T11:33:58;8.33;;;7.50;;
10910;SDS011;5508;49.150;11.030;2024-03-22T11:37:00;9.30;;;7.30;;
10910;SDS011;5508;49.150;11.030;2024-03-22T11:40:01;7.80;;;7.10;;
10910;SDS011;5508;49.150;11.030;2024-03-22T11:43:05;10.07;;;7.00;;
10910;SDS011;5508;49.150;11.030;2024-03-22T11:46:06;10.30;;;7.53;;
10910;SDS011;5508;49.150;11.030;2024-03-22T11:49:06;10.10;;;7.37;;
10910;SDS011;5508;49.150;11.030;2024-03-22T11:52:07;11.03;;;7.27;;
10910;SDS011;5508;49.150;11.030;2024-03-22T11:55:09;7.33;;;6.60;;
10910;SDS011;5508;49.150;11.030;2024-03-22T11:58:10;8.10;;;7.00;;
10910;SDS011;5508;49.150;11.030;2024-03-22T12:01:11;9.43;;;7.30;;
10910;SDS011;5508;49.150;11.030;2024-03-22T12:04:13;10.83;;;7.80;;
10910;SDS011;5508;49.150;11.030;2024-03-22T12:07:16;8.67;;;6.33;;
10910;SDS011;5508;49.150;11.030;2024-03-22T12:10:18;9.90;;;7.43;;
10910;SDS011;5508;49.150;11.030;2024-03-22T12:13:18;7.90;;;7.10;;
10910;SDS011;5508;49.150;11.030;2024-03-22T12:16:19;9.93;;;6.63;;
10910;SDS011;5508;49.150;11.030;2024-03-22T12:19:19;8.07;;;5.87;;
10910;SDS011;5508;49.150;11.030;2024-03-22T12:22:20;8.70;;;5.10;;
10910;SDS011;5508;49.150;11.030;2024-03-22T12:25:22;8.00;;;6.10;;
10910;SDS011;5508;49.150;11.030;2024-03-22T12:28:22;7.07;;;4.93;;
10910;SDS011;5508;49.150;11.030;2024-03-22T12:31:23;6.20;;;4.93;;
10910;SDS011;5508;49.150;11.030;2024-03-22T12:34:23;5.37;;;4.37;;
10910;SDS011;5508;49.150;11.030;2024-03-22T12:37:24;5.23;;;4.30;;
10910;SDS011;5508;49.150;11.030;2024-03-22T12:40:25;5.80;;;5.17;;
10910;SDS011;5508;49.150;11.030;2024-03-22T12:43:26;5.53;;;4.40;;
10910;SDS011;5508;49.150;11.030;2024-03-22T12:46:27;5.67;;;4.23;;
10910;SDS011;5508;49.150;11.030;2024-03-22T12:49:27;6.67;;;4.13;;
10910;SDS011;5508;49.150;11.030;2024-03-22T12:52:28;4.80;;;4.30;;
10910;SDS011;5508;49.150;11.030;2024-03-22T12:55:28;7.03;;;5.03;;
10910;SDS011;5508;49.150;11.030;2024-03-22T12:58:31;5.47;;;4.83;;
10910;SDS011;5508;49.150;11.030;2024-03-22T13:01:32;5.60;;;4.93;;
10910;SDS011;5508;49.150;11.030;2024-03-22T13:04:32;7.57;;;5.30;;
10910;SDS011;5508;49.150;11.030;2024-03-22T13:07:33;7.73;;;5.67;;
10910;SDS011;5508;49.150;11.030;2024-03-22T13:10:34;6.80;;;5.83;;
10910;SDS011;5508;49.150;11.030;2024-03-22T13:13:35;10.87;;;6.73;;
10910;SDS011;5508;49.150;11.030;2024-03-22T13:16:36;7.37;;;5.53;;
10910;SDS011;5508;49.150;11.030;2024-03-22T13:19:36;6.07;;;5.00;;
10910;SDS011;5508;49.150;11.030;2024-03-22T13:22:37;10.90;;;5.30;;
10910;SDS011;5508;49.150;11.030;2024-03-22T13:25:38;7.22;;;6.13;;
10910;SDS011;5508;49.150;11.030;2024-03-22T13:28:38;6.10;;;4.80;;
10910;SDS011;5508;49.150;11.030;2024-03-22T13:31:41;7.93;;;5.77;;
10910;SDS011;5508;49.150;11.030;2024-03-22T13:34:43;5.95;;;4.70;;
10910;SDS011;5508;49.150;11.030;2024-03-22T13:37:43;5.40;;;4.37;;
10910;SDS011;5508;49.150;11.030;2024-03-22T13:40:52;6.45;;;5.07;;
10910;SDS011;5508;49.150;11.030;2024-03-22T13:43:56;12.00;;;5.57;;
10910;SDS011;5508;49.150;11.030;2024-03-22T13:46:57;6.90;;;5.17;;
10910;SDS011;5508;49.150;11.030;2024-03-22T13:49:57;7.72;;;4.88;;
10910;SDS011;5508;49.150;11.030;2024-03-22T13:52:58;5.30;;;4.45;;
10910;SDS011;5508;49.150;11.030;2024-03-22T13:55:58;10.43;;;4.63;;
10910;SDS011;5508;49.150;11.030;2024-03-22T13:58:59;5.32;;;4.55;;
10910;SDS011;5508;49.150;11.030;2024-03-22T14:02:00;6.27;;;4.57;;
10910;SDS011;5508;49.150;11.030;2024-03-22T14:05:01;10.00;;;4.63;;
10910;SDS011;5508;49.150;11.030;2024-03-22T14:08:02;6.03;;;4.77;;
10910;SDS011;5508;49.150;11.030;2024-03-22T14:11:05;11.00;;;5.07;;
10910;SDS011;5508;49.150;11.030;2024-03-22T14:14:06;7.73;;;4.47;;
10910;SDS011;5508;49.150;11.030;2024-03-22T14:17:07;7.57;;;4.00;;
10910;SDS011;5508;49.150;11.030;2024-03-22T14:20:08;7.68;;;4.63;;
10910;SDS011;5508;49.150;11.030;2024-03-22T14:23:11;8.70;;;5.05;;
10910;SDS011;5508;49.150;11.030;2024-03-22T14:26:12;5.25;;;3.80;;
10910;SDS011;5508;49.150;11.030;2024-03-22T14:29:12;7.27;;;4.57;;
10910;SDS011;5508;49.150;11.030;2024-03-22T14:32:13;8.03;;;4.13;;
10910;SDS011;5508;49.150;11.030;2024-03-22T14:35:14;9.10;;;4.30;;
10910;SDS011;5508;49.150;11.030;2024-03-22T14:38:14;6.73;;;3.80;;
10910;SDS011;5508;49.150;11.030;2024-03-22T14:41:15;7.83;;;3.83;;
10910;SDS011;5508;49.150;11.030;2024-03-22T14:44:15;11.13;;;3.70;;
10910;SDS011;5508;49.150;11.030;2024-03-22T14:47:16;6.27;;;3.50;;
10910;SDS011;5508;49.150;11.030;2024-03-22T14:50:16;4.93;;;3.47;;
10910;SDS011;5508;49.150;11.030;2024-03-22T14:53:17;7.03;;;3.53;;
10910;SDS011;5508;49.150;11.030;2024-03-22T14:56:18;7.07;;;3.57;;
10910;SDS011;5508;49.150;11.030;2024-03-22T14:59:20;7.33;;;4.20;;
10910;SDS011;5508;49.150;11.030;2024-03-22T15:02:20;3.50;;;3.13;;
10910;SDS011;5508;49.150;11.030;2024-03-22T15:05:21;6.17;;;3.83;;
10910;SDS011;5508;49.150;11.030;2024-03-22T15:08:22;16.83;;;11.90;;
10910;SDS011;5508;49.150;11.030;2024-03-22T15:11:23;43.97;;;33.67;;
10910;SDS011;5508;49.150;11.030;2024-03-22T15:14:25;3.87;;;3.10;;
10910;SDS011;5508;49.150;11.030;2024-03-22T15:17:29;4.93;;;2.90;;
10910;SDS011;5508;49.150;11.030;2024-03-22T15:20:30;4.20;;;3.20;;
10910;SDS011;5508;49.150;11.030;2024-03-22T15:23:31;4.50;;;3.73;;
10910;SDS011;5508;49.150;11.030;2024-03-22T15:26:32;5.57;;;3.63;;
10910;SDS011;5508;49.150;11.030;2024-03-22T15:29:33;5.10;;;4.10;;
10910;SDS011;5508;49.150;11.030;2024-03-22T15:32:33;4.50;;;3.07;;
10910;SDS011;5508;49.150;11.030;2024-03-22T15:35:34;6.40;;;3.37;;
10910;SDS011;5508;49.150;11.030;2024-03-22T15:38:35;5.80;;;4.60;;
10910;SDS011;5508;49.150;11.030;2024-03-22T15:41:36;4.93;;;3.00;;
10910;SDS011;5508;49.150;11.030;2024-03-22T15:44:36;6.73;;;5.13;;
10910;SDS011;5508;49.150;11.030;2024-03-22T15:47:37;6.23;;;3.43;;
10910;SDS011;5508;49.150;11.030;2024-03-22T15:50:37;6.87;;;3.37;;
10910;SDS011;5508;49.150;11.030;2024-03-22T15:53:38;6.33;;;4.90;;
10910;SDS011;5508;49.150;11.030;2024-03-22T15:56:39;4.73;;;4.23;;
10910;SDS011;5508;49.150;11.030;2024-03-22T15:59:40;7.50;;;4.30;;
10910;SDS011;5508;49.150;11.030;2024-03-22T16:02:41;6.63;;;4.10;;
10910;SDS011;5508;49.150;11.030;2024-03-22T16:05:48;4.90;;;4.00;;
10910;SDS011;5508;49.150;11.030;2024-03-22T16:08:50;6.53;;;4.00;;
10910;SDS011;5508;49.150;11.030;2024-03-22T16:11:51;6.33;;;4.07;;
10910;SDS011;5508;49.150;11.030;2024-03-22T16:14:52;8.70;;;4.50;;
10910;SDS011;5508;49.150;11.030;2024-03-22T16:17:52;5.57;;;4.30;;
10910;SDS011;5508;49.150;11.030;2024-03-22T16:20:54;5.93;;;3.83;;
10910;SDS011;5508;49.150;11.030;2024-03-22T16:23:55;6.03;;;3.70;;
10910;SDS011;5508;49.150;11.030;2024-03-22T16:26:55;5.77;;;4.40;;
10910;SDS011;5508;49.150;11.030;2024-03-22T16:29:56;11.93;;;4.53;;
10910;SDS011;5508;49.150;11.030;2024-03-22T16:32:56;7.90;;;4.57;;
10910;SDS011;5508;49.150;11.030;2024-03-22T16:35:58;15.37;;;6.10;;
10910;SDS011;5508;49.150;11.030;2024-03-22T16:38:59;4.67;;;3.60;;
10910;SDS011;5508;49.150;11.030;2024-03-22T16:42:02;3.50;;;3.00;;
10910;SDS011;5508;49.150;11.030;2024-03-22T16:45:03;13.90;;;3.70;;
10910;SDS011;5508;49.150;11.030;2024-03-22T16:48:04;10.27;;;3.23;;
10910;SDS011;5508;49.150;11.030;2024-03-22T16:51:06;3.50;;;2.93;;
10910;SDS011;5508;49.150;11.030;2024-03-22T16:54:06;8.37;;;5.97;;
10910;SDS011;5508;49.150;11.030;2024-03-22T16:57:10;6.40;;;3.00;;
10910;SDS011;5508;49.150;11.030;2024-03-22T17:00:10;4.13;;;2.23;;
10910;SDS011;5508;49.150;11.030;2024-03-22T17:03:11;20.77;;;13.60;;
10910;SDS011;5508;49.150;11.030;2024-03-22T17:06:12;18.10;;;12.07;;
10910;SDS011;5508;49.150;11.030;2024-03-22T17:09:13;24.33;;;21.93;;
10910;SDS011;5508;49.150;11.030;2024-03-22T17:12:14;53.25;;;30.65;;
10910;SDS011;5508;49.150;11.030;2024-03-22T17:15:15;16.90;;;13.23;;
10910;SDS011;5508;49.150;11.030;2024-03-22T17:18:15;11.70;;;8.17;;
10910;SDS011;5508;49.150;11.030;2024-03-22T17:21:16;9.00;;;5.07;;
10910;SDS011;5508;49.150;11.030;2024-03-22T17:24:17;8.13;;;6.07;;
10910;SDS011;5508;49.150;11.030;2024-03-22T17:27:18;5.17;;;2.80;;
10910;SDS011;5508;49.150;11.030;2024-03-22T17:30:19;4.47;;;3.13;;
10910;SDS011;5508;49.150;11.030;2024-03-22T17:33:20;4.37;;;2.37;;
10910;SDS011;5508;49.150;11.030;2024-03-22T17:36:20;11.37;;;4.10;;
10910;SDS011;5508;49.150;11.030;2024-03-22T17:39:21;8.37;;;4.83;;
10910;SDS011;5508;49.150;11.030;2024-03-22T17:42:21;15.50;;;5.73;;
10910;SDS011;5508;49.150;11.030;2024-03-22T17:45:23;9.33;;;4.47;;
10910;SDS011;5508;49.150;11.030;2024-03-22T17:48:23;12.07;;;7.23;;